createdAt,value
2024-02-03T00:00:39.336Z,15.77
2024-02-03T00:03:06.118Z,15.60
2024-02-03T00:05:32.891Z,15.85
2024-02-03T00:07:59.540Z,15.30
2024-02-03T00:10:26.241Z,14.93
2024-02-03T00:12:53.150Z,14.73
2024-02-03T00:15:20.405Z,13.80
2024-02-03T00:17:47.679Z,13.73
2024-02-03T00:20:15.248Z,13.75
2024-02-03T00:22:46.679Z,13.85
2024-02-03T00:25:13.703Z,13.52
2024-02-03T00:27:40.405Z,12.82
2024-02-03T00:30:08.348Z,13.80
2024-02-03T00:32:35.231Z,12.80
2024-02-03T00:35:01.835Z,12.95
2024-02-03T00:37:28.523Z,13.27
2024-02-03T00:39:55.820Z,13.27
2024-02-03T00:42:22.693Z,12.90
2024-02-03T00:44:49.305Z,12.93
2024-02-03T00:47:16.216Z,13.35
2024-02-03T00:49:45.572Z,12.63
2024-02-03T00:52:12.494Z,11.98
2024-02-03T00:54:39.531Z,12.55
2024-02-03T00:57:08.719Z,12.23
2024-02-03T00:59:35.506Z,13.68
2024-02-03T01:02:02.168Z,14.55
2024-02-03T01:04:28.847Z,14.13
2024-02-03T01:06:57.197Z,15.32
2024-02-03T01:09:24.053Z,14.35
2024-02-03T01:11:50.770Z,14.98
2024-02-03T01:14:17.335Z,14.85
2024-02-03T01:16:45.247Z,14.77
2024-02-03T01:19:11.961Z,15.13
2024-02-03T01:21:38.638Z,15.02
2024-02-03T01:24:05.558Z,14.15
2024-02-03T01:26:32.186Z,14.18
2024-02-03T01:28:58.842Z,15.18
2024-02-03T01:31:25.471Z,14.82
2024-02-03T01:33:52.212Z,14.48
2024-02-03T01:36:19.039Z,14.27
2024-02-03T01:38:51.558Z,14.90
2024-02-03T01:41:18.454Z,14.10
2024-02-03T01:43:46.025Z,14.35
2024-02-03T01:46:13.350Z,14.40
2024-02-03T01:48:41.311Z,14.45
2024-02-03T01:51:09.855Z,14.65
2024-02-03T01:53:37.009Z,14.48
2024-02-03T01:56:03.934Z,13.80
2024-02-03T01:58:30.611Z,14.27
2024-02-03T02:00:57.657Z,13.50
2024-02-03T02:03:24.484Z,13.63
2024-02-03T02:05:51.321Z,12.95
2024-02-03T02:08:20.316Z,13.30
2024-02-03T02:10:47.260Z,13.27
2024-02-03T02:13:13.945Z,12.27
2024-02-03T02:15:40.607Z,13.27
2024-02-03T02:18:07.493Z,12.02
2024-02-03T02:20:34.165Z,12.60
2024-02-03T02:23:00.743Z,12.93
2024-02-03T02:25:27.444Z,12.07
2024-02-03T02:27:54.944Z,11.55
2024-02-03T02:30:21.893Z,11.43
2024-02-03T02:32:49.219Z,11.20
2024-02-03T02:35:16.137Z,11.48
2024-02-03T02:37:42.987Z,11.50
2024-02-03T02:40:10.253Z,11.38
2024-02-03T02:42:37.300Z,12.88
2024-02-03T02:45:04.611Z,11.48
2024-02-03T02:47:31.782Z,11.50
2024-02-03T02:49:58.569Z,11.73
2024-02-03T02:52:25.577Z,11.23
2024-02-03T02:54:52.598Z,11.13
2024-02-03T02:57:19.414Z,11.70
2024-02-03T02:59:46.135Z,10.98
2024-02-03T03:02:12.770Z,10.02
2024-02-03T03:04:39.492Z,10.45
2024-02-03T03:07:06.192Z,10.73
2024-02-03T03:09:32.885Z,10.65
2024-02-03T03:11:59.486Z,10.25
2024-02-03T03:14:26.069Z,10.00
2024-02-03T03:16:53.647Z,8.85
2024-02-03T03:19:20.461Z,9.00
2024-02-03T03:21:47.203Z,9.95
2024-02-03T03:24:14.320Z,11.60
2024-02-03T03:26:44.286Z,9.32
2024-02-03T03:29:16.196Z,10.43
2024-02-03T03:31:43.614Z,9.63
2024-02-03T03:34:10.632Z,9.88
2024-02-03T03:36:37.575Z,9.82
2024-02-03T03:39:04.206Z,10.60
2024-02-03T03:41:30.782Z,11.80
2024-02-03T03:43:57.405Z,11.55
2024-02-03T03:46:23.926Z,11.52
2024-02-03T03:48:50.556Z,11.30
2024-02-03T03:51:17.248Z,12.85
2024-02-03T03:53:43.808Z,13.25
2024-02-03T03:56:11.800Z,14.75
2024-02-03T03:58:38.364Z,13.25
2024-02-03T04:01:05.105Z,13.93
2024-02-03T04:03:31.786Z,13.73
2024-02-03T04:05:58.390Z,13.70
2024-02-03T04:08:24.941Z,14.90
2024-02-03T04:10:51.502Z,15.00
2024-02-03T04:13:18.119Z,15.25
2024-02-03T04:15:44.831Z,14.65
2024-02-03T04:18:11.970Z,14.10
2024-02-03T04:20:38.635Z,15.38
2024-02-03T04:23:05.288Z,14.65
2024-02-03T04:25:31.856Z,15.55
2024-02-03T04:27:58.452Z,15.70
2024-02-03T04:30:25.180Z,15.90
2024-02-03T04:32:54.053Z,16.17
2024-02-03T04:35:20.950Z,14.73
2024-02-03T04:37:47.495Z,15.75
2024-02-03T04:40:14.161Z,15.32
2024-02-03T04:42:40.925Z,15.48
2024-02-03T04:45:08.329Z,14.98
2024-02-03T04:47:35.179Z,15.73
2024-02-03T04:50:02.339Z,15.38
2024-02-03T04:52:29.189Z,15.82
2024-02-03T04:54:55.854Z,14.23
2024-02-03T04:57:22.529Z,14.75
2024-02-03T04:59:49.193Z,15.00
2024-02-03T05:02:15.803Z,14.73
2024-02-03T05:04:43.677Z,13.43
2024-02-03T05:07:10.399Z,14.02
2024-02-03T05:09:37.199Z,14.40
2024-02-03T05:12:04.134Z,15.88
2024-02-03T05:14:30.782Z,13.57
2024-02-03T05:16:57.422Z,13.70
2024-02-03T05:19:24.899Z,13.07
2024-02-03T05:21:51.670Z,14.55
2024-02-03T05:24:18.789Z,13.15
2024-02-03T05:26:45.426Z,12.98
2024-02-03T05:29:11.980Z,12.68
2024-02-03T05:31:38.667Z,12.15
2024-02-03T05:34:05.517Z,12.55
2024-02-03T05:36:32.224Z,12.93
2024-02-03T05:38:58.788Z,12.65
2024-02-03T05:41:25.402Z,13.00
2024-02-03T05:43:52.006Z,12.65
2024-02-03T05:46:18.595Z,11.90
2024-02-03T05:48:45.245Z,11.82
2024-02-03T05:51:12.396Z,11.98
2024-02-03T05:53:39.151Z,12.15
2024-02-03T05:56:06.170Z,12.00
2024-02-03T05:58:32.819Z,12.27
2024-02-03T06:00:59.463Z,12.23
2024-02-03T06:03:26.219Z,12.45
2024-02-03T06:06:12.240Z,11.75
2024-02-03T06:08:41.689Z,12.38
2024-02-03T06:11:09.239Z,11.75
2024-02-03T06:13:35.882Z,11.45
2024-02-03T06:16:05.631Z,11.60
2024-02-03T06:18:32.311Z,11.07
2024-02-03T06:20:58.878Z,11.63
2024-02-03T06:23:25.459Z,11.50
2024-02-03T06:25:52.018Z,10.88
2024-02-03T06:28:18.547Z,10.88
2024-02-03T06:30:45.186Z,11.02
2024-02-03T06:33:12.192Z,11.50
2024-02-03T06:35:41.992Z,10.90
2024-02-03T06:38:08.967Z,11.13
2024-02-03T06:40:35.600Z,10.57
2024-02-03T06:43:02.237Z,10.85
2024-02-03T06:45:29.269Z,10.45
2024-02-03T06:47:56.068Z,10.82
2024-02-03T06:50:22.746Z,13.80
2024-02-03T06:52:49.389Z,9.65
2024-02-03T06:55:16.057Z,9.60
2024-02-03T06:57:42.717Z,9.48
2024-02-03T07:00:11.388Z,9.75
2024-02-03T07:02:38.192Z,8.90
2024-02-03T07:05:05.127Z,8.90
2024-02-03T07:07:31.741Z,8.23
2024-02-03T07:10:00.024Z,8.30
2024-02-03T07:12:28.776Z,9.20
2024-02-03T07:14:55.454Z,9.50
2024-02-03T07:17:22.532Z,7.88
2024-02-03T07:19:49.443Z,9.93
2024-02-03T07:22:16.146Z,7.60
2024-02-03T07:24:42.738Z,8.95
2024-02-03T07:27:10.704Z,7.93
2024-02-03T07:29:37.600Z,9.20
2024-02-03T07:32:04.594Z,10.18
2024-02-03T07:34:31.418Z,7.57
2024-02-03T07:36:58.417Z,8.48
2024-02-03T07:39:25.113Z,8.45
2024-02-03T07:41:51.782Z,9.25
2024-02-03T07:44:18.434Z,7.93
2024-02-03T07:46:44.945Z,8.57
2024-02-03T07:49:11.659Z,8.40
2024-02-03T07:51:38.318Z,9.98
2024-02-03T07:54:05.144Z,9.60
2024-02-03T07:56:31.758Z,9.73
2024-02-03T07:58:58.384Z,9.00
2024-02-03T08:01:25.202Z,8.57
2024-02-03T08:03:52.694Z,8.77
2024-02-03T08:06:19.324Z,9.05
2024-02-03T08:08:45.940Z,10.85
2024-02-03T08:11:12.687Z,8.75
2024-02-03T08:13:39.434Z,8.70
2024-02-03T08:16:06.764Z,10.02
2024-02-03T08:18:34.171Z,9.40
2024-02-03T08:21:01.170Z,9.50
2024-02-03T08:23:27.768Z,10.15
2024-02-03T08:25:54.408Z,10.50
2024-02-03T08:28:20.963Z,8.50
2024-02-03T08:30:47.547Z,9.48
2024-02-03T08:33:14.467Z,8.35
2024-02-03T08:35:41.542Z,9.38
2024-02-03T08:38:08.755Z,8.65
2024-02-03T08:40:35.329Z,8.20
2024-02-03T08:43:01.937Z,10.30
2024-02-03T08:45:29.468Z,8.63
2024-02-03T08:47:56.284Z,8.95
2024-02-03T08:50:23.711Z,9.20
2024-02-03T08:52:50.658Z,10.82
2024-02-03T08:55:17.258Z,9.23
2024-02-03T08:57:43.957Z,9.40
2024-02-03T09:00:11.385Z,8.95
2024-02-03T09:02:37.949Z,9.63
2024-02-03T09:05:04.907Z,9.27
2024-02-03T09:07:35.561Z,10.10
2024-02-03T09:10:05.715Z,9.48
2024-02-03T09:12:32.699Z,9.50
2024-02-03T09:14:59.404Z,10.35
2024-02-03T09:17:26.016Z,10.18
2024-02-03T09:19:52.764Z,10.93
2024-02-03T09:22:19.552Z,10.90
2024-02-03T09:24:46.265Z,11.18
2024-02-03T09:27:13.062Z,10.00
2024-02-03T09:29:41.833Z,10.20
2024-02-03T09:32:09.911Z,9.57
2024-02-03T09:34:36.495Z,9.40
2024-02-03T09:39:34.463Z,9.77
2024-02-03T09:42:01.578Z,8.85
2024-02-03T09:44:28.439Z,9.55
2024-02-03T09:46:56.497Z,10.18
2024-02-03T09:49:23.271Z,9.95
2024-02-03T09:51:49.918Z,9.45
2024-02-03T09:54:16.588Z,9.13
2024-02-03T09:56:46.125Z,9.27
2024-02-03T09:59:12.994Z,9.35
2024-02-03T10:01:39.719Z,8.40
2024-02-03T10:04:06.456Z,8.13
2024-02-03T10:06:33.120Z,9.32
2024-02-03T10:08:59.858Z,9.00
2024-02-03T10:11:37.035Z,9.20
2024-02-03T10:14:03.640Z,8.45
2024-02-03T10:16:30.181Z,8.23
2024-02-03T10:18:56.836Z,8.18
2024-02-03T10:21:24.925Z,7.88
2024-02-03T10:23:52.427Z,7.68
2024-02-03T10:26:19.023Z,8.55
2024-02-03T10:28:45.920Z,7.40
2024-02-03T10:31:15.613Z,7.28
2024-02-03T10:33:45.810Z,7.10
2024-02-03T10:36:12.542Z,7.13
2024-02-03T10:38:42.606Z,6.68
2024-02-03T10:41:12.742Z,6.38
2024-02-03T10:43:39.601Z,6.68
2024-02-03T10:46:07.050Z,7.97
2024-02-03T10:48:34.962Z,7.97
2024-02-03T10:51:06.391Z,6.47
2024-02-03T10:53:40.568Z,6.80
2024-02-03T10:56:10.278Z,6.43
2024-02-03T10:58:40.210Z,6.38
2024-02-03T11:01:18.666Z,8.82
2024-02-03T11:03:50.020Z,7.20
2024-02-03T11:06:30.099Z,6.85
2024-02-03T11:09:13.612Z,6.70
2024-02-03T11:11:49.458Z,9.07
2024-02-03T11:14:25.418Z,6.40
2024-02-03T11:16:58.482Z,6.32
2024-02-03T11:19:28.456Z,6.55
2024-02-03T11:21:59.572Z,6.10
2024-02-03T11:24:26.574Z,6.80
2024-02-03T11:27:00.640Z,6.15
2024-02-03T11:29:27.282Z,7.20
2024-02-03T11:32:04.865Z,7.50
2024-02-03T11:34:36.867Z,5.97
2024-02-03T11:37:04.757Z,7.68
2024-02-03T11:39:35.034Z,7.38
2024-02-03T11:42:06.640Z,7.82
2024-02-03T11:44:56.519Z,8.85
2024-02-03T11:47:23.559Z,7.05
2024-02-03T11:49:53.756Z,8.13
2024-02-03T11:52:24.507Z,8.25
2024-02-03T11:57:19.331Z,7.68
2024-02-03T11:59:46.007Z,8.82
2024-02-03T12:02:16.286Z,8.75
2024-02-03T12:04:43.050Z,9.27
2024-02-03T12:07:09.820Z,8.27
2024-02-03T12:09:36.868Z,9.40
2024-02-03T12:12:04.892Z,10.65
2024-02-03T12:14:31.435Z,8.68
2024-02-03T12:16:58.475Z,8.52
2024-02-03T12:19:25.565Z,9.38
2024-02-03T12:21:52.288Z,8.98
2024-02-03T12:24:18.938Z,8.38
2024-02-03T12:26:45.641Z,8.45
2024-02-03T12:29:13.619Z,8.95
2024-02-03T12:31:41.413Z,8.50
2024-02-03T12:34:08.288Z,8.23
2024-02-03T12:36:35.235Z,9.73
2024-02-03T12:39:02.861Z,8.73
2024-02-03T12:41:29.475Z,8.45
2024-02-03T12:43:56.023Z,9.25
2024-02-03T12:46:24.280Z,7.95
2024-02-03T12:48:53.713Z,7.65
2024-02-03T12:51:20.446Z,8.45
2024-02-03T12:53:47.586Z,7.82
2024-02-03T12:56:14.690Z,7.65
2024-02-03T12:58:42.070Z,7.18
2024-02-03T13:01:09.339Z,7.50
2024-02-03T13:03:36.811Z,8.00
2024-02-03T13:06:03.838Z,8.55
2024-02-03T13:08:30.640Z,9.75
2024-02-03T13:10:57.227Z,7.38
2024-02-03T13:13:23.903Z,7.65
2024-02-03T13:15:50.608Z,7.88
2024-02-03T13:18:17.207Z,7.72
2024-02-03T13:20:43.745Z,9.20
2024-02-03T13:23:10.332Z,7.70
2024-02-03T13:25:37.032Z,8.48
2024-02-03T13:28:04.657Z,8.43
2024-02-03T13:30:31.949Z,7.82
2024-02-03T13:32:58.818Z,8.80
2024-02-03T13:35:27.395Z,7.53
2024-02-03T13:37:54.026Z,7.90
2024-02-03T13:40:20.558Z,8.05
2024-02-03T13:42:53.668Z,7.82
2024-02-03T13:45:20.831Z,9.25
2024-02-03T13:47:53.278Z,7.05
2024-02-03T13:50:20.214Z,7.47
2024-02-03T13:52:47.447Z,8.25
2024-02-03T13:55:14.255Z,6.85
2024-02-03T13:57:41.145Z,7.35
2024-02-03T14:00:08.782Z,7.35
2024-02-03T14:02:38.454Z,7.38
2024-02-03T14:05:05.690Z,8.02
2024-02-03T14:07:32.251Z,6.40
2024-02-03T14:09:58.875Z,6.28
2024-02-03T14:12:25.518Z,6.57
2024-02-03T14:14:52.169Z,6.40
2024-02-03T14:17:20.325Z,8.48
2024-02-03T14:19:47.395Z,7.53
2024-02-03T14:22:15.112Z,6.68
2024-02-03T14:24:42.507Z,6.10
2024-02-03T14:27:09.885Z,5.60
2024-02-03T14:29:36.429Z,5.55
2024-02-03T14:32:04.142Z,5.63
2024-02-03T14:34:30.970Z,5.18
2024-02-03T14:36:57.804Z,5.25
2024-02-03T14:39:24.523Z,5.15
2024-02-03T14:41:52.507Z,5.18
2024-02-03T14:44:20.370Z,5.40
2024-02-03T14:46:47.524Z,4.63
2024-02-03T14:49:14.578Z,5.82
2024-02-03T14:51:41.733Z,5.43
2024-02-03T14:54:08.503Z,6.03
2024-02-03T14:56:35.111Z,5.57
2024-02-03T14:59:01.952Z,5.75
2024-02-03T15:01:28.741Z,5.25
2024-02-03T15:03:55.445Z,5.53
2024-02-03T15:06:22.118Z,6.05
2024-02-03T15:08:48.826Z,5.68
2024-02-03T15:11:15.443Z,6.68
2024-02-03T15:13:41.979Z,7.30
2024-02-03T15:16:08.617Z,6.65
2024-02-03T15:18:35.370Z,6.88
2024-02-03T15:21:02.056Z,7.10
2024-02-03T15:23:28.955Z,7.55
2024-02-03T15:25:55.656Z,7.10
2024-02-03T15:28:25.961Z,6.28
2024-02-03T15:30:54.585Z,8.80
2024-02-03T15:33:22.515Z,6.28
2024-02-03T15:35:49.144Z,6.80
2024-02-03T15:38:15.702Z,7.88
2024-02-03T15:40:42.300Z,6.07
2024-02-03T15:43:08.902Z,6.13
2024-02-03T15:45:35.549Z,6.57
2024-02-03T15:48:02.213Z,6.22
2024-02-03T15:50:30.919Z,7.10
2024-02-03T15:52:58.248Z,8.60
2024-02-03T15:55:25.029Z,5.82
2024-02-03T15:57:51.730Z,5.63
2024-02-03T16:00:18.714Z,6.93
2024-02-03T16:02:45.644Z,7.28
2024-02-03T16:05:12.285Z,8.05
2024-02-03T16:07:42.463Z,6.65
2024-02-03T16:10:12.472Z,7.40
2024-02-03T16:12:39.205Z,7.07
2024-02-03T16:15:06.952Z,6.65
2024-02-03T16:17:33.898Z,5.97
2024-02-03T16:20:05.435Z,6.15
2024-02-03T16:22:33.492Z,8.60
2024-02-03T16:25:00.940Z,6.60
2024-02-03T16:27:28.405Z,6.13
2024-02-03T16:29:55.159Z,8.43
2024-02-03T16:32:21.731Z,7.30
2024-02-03T16:34:48.491Z,5.18
2024-02-03T16:37:15.197Z,5.45
2024-02-03T16:39:41.849Z,5.13
2024-02-03T16:42:08.441Z,6.05
2024-02-03T16:44:34.979Z,6.05
2024-02-03T16:47:01.770Z,5.45
2024-02-03T16:49:28.389Z,6.15
2024-02-03T16:51:55.076Z,6.57
2024-02-03T16:54:21.683Z,6.60
2024-02-03T16:56:48.233Z,6.55
2024-02-03T16:59:14.753Z,7.55
2024-02-03T17:01:48.614Z,5.80
2024-02-03T17:04:18.092Z,5.45
2024-02-03T17:06:48.619Z,7.68
2024-02-03T17:09:16.246Z,5.75
2024-02-03T17:11:42.954Z,5.97
2024-02-03T17:14:10.172Z,6.35
2024-02-03T17:16:37.220Z,7.35
2024-02-03T17:19:08.093Z,6.60
2024-02-03T17:21:35.217Z,7.53
2024-02-03T17:24:02.232Z,7.55
2024-02-03T17:26:29.037Z,7.68
2024-02-03T17:28:55.947Z,7.25
2024-02-03T17:31:22.537Z,6.47
2024-02-03T17:33:49.300Z,6.80
2024-02-03T17:36:16.172Z,7.40
2024-02-03T17:38:42.914Z,11.50
2024-02-03T17:41:09.515Z,9.65
2024-02-03T17:43:36.089Z,8.30
2024-02-03T17:46:02.742Z,10.23
2024-02-03T17:48:29.463Z,9.40
2024-02-03T17:50:56.258Z,10.00
2024-02-03T17:53:22.904Z,9.48
2024-02-03T17:55:49.492Z,9.48
2024-02-03T17:58:16.055Z,9.82
2024-02-03T18:00:42.746Z,10.30
2024-02-03T18:03:09.443Z,13.52
2024-02-03T18:05:36.089Z,8.63
2024-02-03T18:08:02.783Z,9.43
2024-02-03T18:10:29.422Z,11.77
2024-02-03T18:12:56.092Z,9.63
2024-02-03T18:15:25.984Z,11.07
2024-02-03T18:17:53.018Z,11.05
2024-02-03T18:20:20.110Z,9.80
2024-02-03T18:22:47.003Z,10.50
2024-02-03T18:25:13.600Z,11.00
2024-02-03T18:27:40.226Z,10.57
2024-02-03T18:30:07.570Z,11.15
2024-02-03T18:32:34.238Z,10.95
2024-02-03T18:35:00.963Z,10.55
2024-02-03T18:37:27.675Z,11.90
2024-02-03T18:39:54.564Z,11.23
2024-02-03T18:42:21.240Z,9.70
2024-02-03T18:44:47.827Z,11.30
2024-02-03T18:47:14.460Z,10.93
2024-02-03T18:49:41.167Z,10.02
2024-02-03T18:52:07.872Z,12.65
2024-02-03T18:54:34.539Z,13.45
2024-02-03T18:57:01.136Z,9.32
2024-02-03T18:59:27.738Z,10.27
2024-02-03T19:01:54.464Z,11.25
2024-02-03T19:04:21.965Z,11.75
2024-02-03T19:06:50.392Z,9.38
2024-02-03T19:09:17.076Z,11.02
2024-02-03T19:11:44.480Z,9.07
2024-02-03T19:14:10.994Z,10.10
2024-02-03T19:16:37.568Z,10.82
2024-02-03T19:19:04.353Z,11.23
2024-02-03T19:21:31.164Z,10.02
2024-02-03T19:23:57.725Z,12.50
2024-02-03T19:26:24.764Z,9.70
2024-02-03T19:28:51.373Z,9.70
2024-02-03T19:31:17.971Z,10.70
2024-02-03T19:33:44.795Z,11.13
2024-02-03T19:36:11.584Z,12.25
2024-02-03T19:38:38.136Z,9.18
2024-02-03T19:41:04.872Z,10.80
2024-02-03T19:43:31.666Z,11.98
2024-02-03T19:45:59.091Z,11.48
2024-02-03T19:48:26.261Z,13.63
2024-02-03T19:50:53.152Z,13.55
2024-02-03T19:53:19.861Z,15.43
2024-02-03T19:55:46.444Z,15.80
2024-02-03T19:58:13.116Z,16.67
2024-02-03T20:00:39.815Z,15.98
2024-02-03T20:03:07.535Z,16.55
2024-02-03T20:05:34.351Z,16.15
2024-02-03T20:08:01.363Z,18.55
2024-02-03T20:10:29.973Z,21.60
2024-02-03T20:12:56.935Z,20.83
2024-02-03T20:15:23.664Z,23.38
2024-02-03T20:17:50.457Z,23.08
2024-02-03T20:20:17.134Z,23.95
2024-02-03T20:22:44.200Z,26.45
2024-02-03T20:25:10.916Z,24.45
2024-02-03T20:27:38.331Z,24.42
2024-02-03T20:30:06.099Z,25.52
2024-02-03T20:32:32.870Z,22.73
2024-02-03T20:34:59.809Z,26.80
2024-02-03T20:37:26.640Z,25.00
2024-02-03T20:39:53.248Z,24.77
2024-02-03T20:42:21.197Z,23.65
2024-02-03T20:44:47.918Z,28.15
2024-02-03T20:47:14.579Z,23.25
2024-02-03T20:49:41.261Z,22.52
2024-02-03T20:52:08.114Z,24.25
2024-02-03T20:54:34.790Z,24.80
2024-02-03T20:57:01.372Z,23.33
2024-02-03T20:59:28.027Z,22.80
2024-02-03T21:01:54.815Z,22.88
2024-02-03T21:04:21.604Z,23.92
2024-02-03T21:06:48.437Z,22.35
2024-02-03T21:09:15.607Z,21.38
2024-02-03T21:11:46.505Z,23.33
2024-02-03T21:14:14.980Z,23.33
2024-02-03T21:16:41.748Z,24.35
2024-02-03T21:19:08.527Z,26.70
2024-02-03T21:21:38.305Z,24.80
2024-02-03T21:24:05.664Z,28.20
2024-02-03T21:26:32.439Z,26.45
2024-02-03T21:28:59.200Z,27.40
2024-02-03T21:31:26.931Z,27.48
2024-02-03T21:33:54.162Z,29.08
2024-02-03T21:36:21.438Z,27.08
2024-02-03T21:38:49.178Z,26.67
2024-02-03T21:41:16.320Z,24.10
2024-02-03T21:43:42.987Z,26.30
2024-02-03T21:46:09.585Z,27.90
2024-02-03T21:48:36.354Z,25.55
2024-02-03T21:51:03.177Z,23.65
2024-02-03T21:53:29.788Z,25.77
2024-02-03T21:55:57.175Z,24.25
2024-02-03T21:58:24.377Z,24.95
2024-02-03T22:00:52.228Z,23.58
2024-02-03T22:03:19.206Z,26.08
2024-02-03T22:05:46.224Z,23.42
2024-02-03T22:08:13.723Z,24.08
2024-02-03T22:10:40.463Z,25.63
2024-02-03T22:13:07.080Z,25.90
2024-02-03T22:15:33.809Z,24.38
2024-02-03T22:18:01.084Z,24.55
2024-02-03T22:20:27.831Z,23.05
2024-02-03T22:22:54.431Z,22.67
2024-02-03T22:25:21.058Z,23.55
2024-02-03T22:27:47.665Z,22.00
2024-02-03T22:30:15.388Z,20.90
2024-02-03T22:32:42.278Z,20.52
2024-02-03T22:35:09.763Z,19.60
2024-02-03T22:37:37.284Z,18.13
2024-02-03T22:40:05.243Z,18.42
2024-02-03T22:42:32.025Z,18.08
2024-02-03T22:44:58.641Z,17.13
2024-02-03T22:47:25.203Z,16.25
2024-02-03T22:49:51.968Z,17.40
2024-02-03T22:52:18.648Z,18.13
2024-02-03T22:54:45.334Z,17.60
2024-02-03T22:57:11.986Z,17.42
2024-02-03T22:59:38.701Z,18.33
2024-02-03T23:02:06.105Z,18.20
2024-02-03T23:04:32.816Z,17.50
2024-02-03T23:06:59.468Z,17.52
2024-02-03T23:09:26.188Z,17.63
2024-02-03T23:11:52.863Z,18.77
2024-02-03T23:14:19.467Z,17.40
2024-02-03T23:16:46.061Z,17.35
2024-02-03T23:19:12.816Z,16.48
2024-02-03T23:21:40.636Z,17.48
2024-02-03T23:24:08.079Z,17.10
2024-02-03T23:26:34.664Z,17.45
2024-02-03T23:29:01.378Z,17.50
2024-02-03T23:31:28.053Z,17.90
2024-02-03T23:33:58.751Z,16.95
2024-02-03T23:36:27.057Z,17.27
2024-02-03T23:38:53.695Z,17.52
2024-02-03T23:41:20.396Z,16.67
2024-02-03T23:43:48.334Z,16.13
2024-02-03T23:46:14.879Z,15.60
2024-02-03T23:48:41.595Z,15.90
2024-02-03T23:51:08.231Z,15.68
2024-02-03T23:53:34.760Z,14.02
2024-02-03T23:56:01.375Z,14.52
2024-02-03T23:58:28.761Z,13.52
